Time,TemperatureF,DewpointF,PressureIn,WindDirection,WindDirectionDegrees,WindSpeedMPH,WindSpeedGustMPH,Humidity,HourlyPrecipIn,Conditions,Clouds,dailyrainin,SoftwareType,DateUTC
2013-04-23 00:01:00,36.3,32.5,28.91,WSW,258,7.6,8.7,86,0.00,,OVC007,0.00,VWS V14.00,2013-04-23 05:01:00,
2013-04-23 00:06:00,36.3,32.5,28.91,WSW,244,5.4,9.6,86,0.00,,OVC007,0.00,VWS V14.00,2013-04-23 05:06:00,
2013-04-23 00:11:00,36.3,32.2,28.94,WSW,245,0.0,2.7,85,0.00,,OVC007,0.00,VWS V14.00,2013-04-23 05:11:00,
2013-04-23 00:16:00,36.3,32.5,28.94,WSW,254,0.0,10.1,86,0.00,,OVC007,0.00,VWS V14.00,2013-04-23 05:16:00,
2013-04-23 00:21:00,36.1,32.1,28.94,WSW,256,2.7,6.3,85,0.00,,OVC007,0.00,VWS V14.00,2013-04-23 05:21:00,
2013-04-23 00:26:00,36.1,32.1,28.94,WSW,242,4.0,8.7,85,0.00,,OVC007,0.00,VWS V14.00,2013-04-23 05:26:00,
2013-04-23 00:31:00,36.0,31.9,28.94,WNW,289,5.4,8.7,85,0.00,,OVC007,0.00,VWS V14.00,2013-04-23 05:31:00,
2013-04-23 00:36:00,35.8,31.7,28.94,West,269,5.8,10.5,85,0.00,,OVC007,0.00,VWS V14.00,2013-04-23 05:36:00,
2013-04-23 00:41:00,35.6,31.5,28.94,NW,308,6.3,8.3,85,0.00,,OVC007,0.00,VWS V14.00,2013-04-23 05:41:00,
2013-04-23 00:46:00,35.6,31.5,28.94,West,270,4.9,10.1,85,0.00,,OVC007,0.00,VWS V14.00,2013-04-23 05:46:00,
2013-04-23 00:51:00,35.6,31.5,28.94,WSW,241,2.7,6.7,85,0.00,,OVC007,0.00,VWS V14.00,2013-04-23 05:51:00,
2013-04-23 00:56:00,35.4,31.4,28.97,West,276,4.0,6.7,85,0.00,,OVC007,0.00,VWS V14.00,2013-04-23 05:56:00,
2013-04-23 01:01:00,35.2,30.9,28.97,WSW,257,8.1,8.7,84,0.00,,OVC009,0.00,VWS V14.00,2013-04-23 06:01:00,
2013-04-23 01:06:00,35.2,30.6,28.97,SW,218,5.4,8.7,83,0.00,,OVC009,0.00,VWS V14.00,2013-04-23 06:06:00,
2013-04-23 01:11:00,35.1,29.8,28.97,NW,318,4.0,10.5,81,0.00,,OVC009,0.00,VWS V14.00,2013-04-23 06:11:00,
2013-04-23 01:16:00,35.1,28.9,28.97,WNW,293,4.9,10.5,78,0.00,,OVC010,0.00,VWS V14.00,2013-04-23 06:16:00,
2013-04-23 01:21:00,35.2,28.5,28.97,WSW,256,4.9,4.9,76,0.00,,OVC010,0.00,VWS V14.00,2013-04-23 06:21:00,
2013-04-23 01:26:00,35.1,27.0,28.97,SW,233,8.7,11.0,72,0.00,,OVC010,0.00,VWS V14.00,2013-04-23 06:26:00,
2013-04-23 01:31:00,34.7,25.6,28.97,West,261,2.7,4.0,69,0.00,,OVC010,0.00,VWS V14.00,2013-04-23 06:31:00,
2013-04-23 01:36:00,34.7,25.9,28.97,SW,214,6.3,8.7,70,0.00,,OVC011,0.00,VWS V14.00,2013-04-23 06:36:00,
2013-04-23 01:41:00,34.5,26.1,29.00,West,269,5.4,7.2,71,0.00,,OVC011,0.00,VWS V14.00,2013-04-23 06:41:00,
2013-04-23 01:46:00,34.3,26.3,29.00,SSW,210,0.0,11.0,72,0.00,,-RA,0.00,VWS V14.00,2013-04-23 06:46:00,
2013-04-23 01:51:00,34.2,26.4,29.00,WSW,258,3.1,7.6,73,0.00,,OVC011,0.00,VWS V14.00,2013-04-23 06:51:00,
2013-04-23 01:56:00,34.2,26.4,28.97,West,279,6.3,8.3,73,0.00,,OVC011,0.00,VWS V14.00,2013-04-23 06:56:00,
2013-04-23 02:01:00,34.0,26.6,28.97,West,266,4.9,12.8,74,0.00,,OVC013,0.00,VWS V14.00,2013-04-23 07:01:00,
2013-04-23 02:06:00,34.0,26.6,28.97,SW,232,3.1,12.8,74,0.00,,OVC013,0.00,VWS V14.00,2013-04-23 07:06:00,
2013-04-23 02:11:00,34.0,26.9,28.97,West,272,4.9,6.7,75,0.00,,OVC013,0.00,VWS V14.00,2013-04-23 07:11:00,
2013-04-23 02:16:00,33.8,26.7,28.97,WNW,282,5.8,8.7,75,0.00,,-RA,0.00,VWS V14.00,2013-04-23 07:16:00,
2013-04-23 02:21:00,33.8,27.0,28.97,West,264,7.2,7.2,76,0.00,,-RA,0.00,VWS V14.00,2013-04-23 07:21:00,
2013-04-23 02:26:00,33.8,27.0,28.94,WNW,297,3.1,9.6,76,0.00,,-RA,0.00,VWS V14.00,2013-04-23 07:26:00,
2013-04-23 02:31:00,33.8,27.4,28.94,WSW,253,5.4,6.3,77,0.00,,-RA,0.00,VWS V14.00,2013-04-23 07:31:00,
2013-04-23 02:36:00,33.6,27.5,28.94,WNW,294,8.1,8.7,78,0.00,,OVC012,0.00,VWS V14.00,2013-04-23 07:36:00,
2013-04-23 02:41:00,33.8,27.7,28.94,West,275,8.3,8.3,78,0.00,,OVC012,0.00,VWS V14.00,2013-04-23 07:41:00,
2013-04-23 02:46:00,33.6,27.5,28.94,West,266,5.4,10.5,78,0.00,,OVC012,0.00,VWS V14.00,2013-04-23 07:46:00,
2013-04-23 02:51:00,33.6,27.5,28.94,NW,320,6.3,6.3,78,0.00,,OVC012,0.00,VWS V14.00,2013-04-23 07:51:00,
2013-04-23 02:56:00,33.6,27.5,28.97,SSW,208,6.7,11.0,78,0.00,,OVC012,0.00,VWS V14.00,2013-04-23 07:56:00,
2013-04-23 03:01:00,33.4,27.0,28.97,NW,306,2.2,3.6,77,0.00,,,0.00,VWS V14.00,2013-04-23 08:01:00,
2013-04-23 03:06:00,33.4,27.0,28.97,West,275,2.7,9.6,77,0.00,,,0.00,VWS V14.00,2013-04-23 08:06:00,
2013-04-23 03:11:00,33.4,26.7,28.94,WSW,246,7.6,8.7,76,0.00,,,0.00,VWS V14.00,2013-04-23 08:11:00,
2013-04-23 03:16:00,33.4,26.7,28.94,SW,222,8.7,11.0,76,0.00,,,0.00,VWS V14.00,2013-04-23 08:16:00,
2013-04-23 03:21:00,33.4,26.4,28.94,WSW,252,3.1,5.4,75,0.00,,,0.00,VWS V14.00,2013-04-23 08:21:00,
2013-04-23 03:26:00,33.4,26.4,28.94,SW,234,3.6,11.9,75,0.00,,,0.00,VWS V14.00,2013-04-23 08:26:00,
2013-04-23 03:31:00,33.3,25.9,28.94,West,275,0.0,6.3,74,0.00,,,0.00,VWS V14.00,2013-04-23 08:31:00,
2013-04-23 03:36:00,33.3,25.2,28.94,WNW,285,5.8,10.5,72,0.00,,,0.00,VWS V14.00,2013-04-23 08:36:00,
2013-04-23 03:41:00,33.3,25.2,28.97,West,280,8.3,8.3,72,0.00,,,0.00,VWS V14.00,2013-04-23 08:41:00,
2013-04-23 03:46:00,33.4,25.1,28.97,WSW,253,3.6,8.7,71,0.00,,,0.00,VWS V14.00,2013-04-23 08:46:00,
2013-04-23 03:51:00,33.3,23.9,28.97,NW,304,3.6,7.2,68,0.00,,,0.00,VWS V14.00,2013-04-23 08:51:00,
2013-04-23 03:56:00,33.3,22.4,28.97,West,276,0.0,13.2,64,0.00,,,0.00,VWS V14.00,2013-04-23 08:56:00,
2013-04-23 04:01:00,33.4,22.2,28.97,WNW,292,6.3,8.3,63,0.00,,OVC012,0.00,VWS V14.00,2013-04-23 09:01:00,
2013-04-23 04:06:00,33.4,22.2,28.97,WNW,287,0.0,8.3,63,0.00,,OVC012,0.00,VWS V14.00,2013-04-23 09:06:00,
2013-04-23 04:11:00,33.6,22.4,29.00,WSW,247,3.1,5.8,63,0.00,,OVC012,0.00,VWS V14.00,2013-04-23 09:11:00,
2013-04-23 04:16:00,33.8,21.8,29.00,West,277,7.2,9.6,61,0.00,,OVC012,0.00,VWS V14.00,2013-04-23 09:16:00,
2013-04-23 04:21:00,33.8,21.0,29.00,WSW,248,6.3,8.1,59,0.00,,OVC012,0.00,VWS V14.00,2013-04-23 09:21:00,
2013-04-23 04:26:00,33.8,20.6,29.00,WSW,240,4.9,8.1,58,0.00,,OVC012,0.00,VWS V14.00,2013-04-23 09:26:00,
2013-04-23 04:31:00,33.8,20.6,29.00,WNW,302,6.3,6.7,58,0.00,,OVC012,0.00,VWS V14.00,2013-04-23 09:31:00,
2013-04-23 04:36:00,33.8,19.8,29.00,West,279,5.8,8.3,56,0.00,,OVC012,0.00,VWS V14.00,2013-04-23 09:36:00,
2013-04-23 04:41:00,33.6,20.0,29.00,West,281,3.6,5.4,57,0.00,,OVC012,0.00,VWS V14.00,2013-04-23 09:41:00,
2013-04-23 04:46:00,33.8,19.8,29.00,West,275,5.4,7.6,56,0.00,,OVC012,0.00,VWS V14.00,2013-04-23 09:46:00,
2013-04-23 04:51:00,33.8,19.8,29.00,West,270,7.6,7.6,56,0.00,,OVC012,0.00,VWS V14.00,2013-04-23 09:51:00,
2013-04-23 04:56:00,33.8,19.8,28.97,West,277,6.3,10.5,56,0.00,,OVC012,0.00,VWS V14.00,2013-04-23 09:56:00,
2013-04-23 05:01:00,33.8,19.8,28.97,WSW,246,4.9,4.9,56,0.00,,,0.00,VWS V14.00,2013-04-23 10:01:00,
2013-04-23 05:06:00,33.8,19.8,28.97,West,270,3.1,5.8,56,0.00,,,0.00,VWS V14.00,2013-04-23 10:06:00,
2013-04-23 05:11:00,33.6,19.2,28.97,SSW,198,4.0,8.1,55,0.00,,,0.00,VWS V14.00,2013-04-23 10:11:00,
2013-04-23 05:16:00,33.8,18.9,28.97,SW,232,2.7,10.5,54,0.00,,,0.00,VWS V14.00,2013-04-23 10:16:00,
2013-04-23 05:21:00,33.6,18.3,28.97,SW,215,3.6,8.3,53,0.00,,,0.00,VWS V14.00,2013-04-23 10:21:00,
2013-04-23 05:26:00,33.8,18.5,29.00,NW,321,6.3,15.0,53,0.00,,,0.00,VWS V14.00,2013-04-23 10:26:00,
2013-04-23 05:31:00,33.6,18.3,29.00,WNW,297,5.8,8.3,53,0.00,,,0.00,VWS V14.00,2013-04-23 10:31:00,
2013-04-23 05:36:00,33.6,18.3,29.00,WSW,258,0.0,15.4,53,0.00,,,0.00,VWS V14.00,2013-04-23 10:36:00,
2013-04-23 05:41:00,33.6,18.3,29.00,NW,306,8.1,8.7,53,0.00,,,0.00,VWS V14.00,2013-04-23 10:41:00,
2013-04-23 05:46:00,33.6,18.3,29.00,SW,231,8.1,11.9,53,0.00,,,0.00,VWS V14.00,2013-04-23 10:46:00,
2013-04-23 05:51:00,33.6,18.3,29.00,West,264,4.9,5.8,53,0.00,,,0.00,VWS V14.00,2013-04-23 10:51:00,
2013-04-23 05:56:00,33.4,17.7,29.00,WNW,286,12.8,12.8,52,0.00,,,0.00,VWS V14.00,2013-04-23 10:56:00,
2013-04-23 06:01:00,33.4,17.7,29.00,SSW,196,3.1,6.3,52,0.00,,OVC013,0.00,VWS V14.00,2013-04-23 11:01:00,
2013-04-23 06:06:00,33.4,17.7,29.00,West,281,5.4,10.5,52,0.00,,OVC013,0.00,VWS V14.00,2013-04-23 11:06:00,
2013-04-23 06:11:00,33.4,17.7,29.00,WSW,244,8.1,8.7,52,0.00,,OVC013,0.00,VWS V14.00,2013-04-23 11:11:00,
2013-04-23 06:16:00,33.4,18.2,29.00,WSW,253,7.6,13.6,53,0.00,,OVC013,0.00,VWS V14.00,2013-04-23 11:16:00,
2013-04-23 06:21:00,33.3,18.0,29.00,West,265,6.3,9.6,53,0.00,,OVC013,0.00,VWS V14.00,2013-04-23 11:21:00,
2013-04-23 06:26:00,33.3,18.0,28.97,West,261,9.6,13.6,53,0.00,,OVC013,0.00,VWS V14.00,2013-04-23 11:26:00,
2013-04-23 06:31:00,33.1,17.8,28.97,WSW,258,6.3,6.3,53,0.00,,OVC013,0.00,VWS V14.00,2013-04-23 11:31:00,
2013-04-23 06:36:00,32.7,17.0,28.97,WNW,283,8.1,10.1,52,0.00,,OVC013,0.00,VWS V14.00,2013-04-23 11:36:00,
2013-04-23 06:41:00,32.7,17.5,28.97,WNW,292,8.1,8.7,53,0.00,,OVC013,0.00,VWS V14.00,2013-04-23 11:41:00,
2013-04-23 06:46:00,32.7,17.5,28.97,NW,321,8.1,11.0,53,0.00,,OVC013,0.00,VWS V14.00,2013-04-23 11:46:00,
2013-04-23 06:51:00,32.5,17.3,28.97,SW,214,5.4,11.0,53,0.00,,OVC013,0.00,VWS V14.00,2013-04-23 11:51:00,
2013-04-23 06:56:00,32.5,16.9,28.97,NW,308,3.6,11.0,52,0.00,,OVC013,0.00,VWS V14.00,2013-04-23 11:56:00,
2013-04-23 07:01:00,32.5,16.9,28.97,WNW,296,5.8,11.9,52,0.00,,OVC012,0.00,VWS V14.00,2013-04-23 12:01:00,
2013-04-23 07:06:00,32.7,17.0,28.97,WNW,295,5.8,11.9,52,0.00,,OVC012,0.00,VWS V14.00,2013-04-23 12:06:00,
2013-04-23 07:10:00,32.5,16.9,28.97,SSW,206,12.3,12.3,52,0.00,,OVC012,0.00,VWS V14.00,2013-04-23 12:10:00,
2013-04-23 07:15:00,32.5,16.9,28.97,West,272,8.7,12.3,52,0.00,,OVC012,0.00,VWS V14.00,2013-04-23 12:15:00,
2013-04-23 07:20:00,32.7,17.0,28.97,WNW,302,6.3,6.3,52,0.00,,OVC012,0.00,VWS V14.00,2013-04-23 12:20:00,
2013-04-23 07:25:00,32.7,16.6,28.97,West,280,3.6,12.3,51,0.00,,OVC012,0.00,VWS V14.00,2013-04-23 12:25:00,
2013-04-23 07:30:00,32.7,16.6,28.97,WNW,288,7.6,7.6,51,0.00,,OVC012,0.00,VWS V14.00,2013-04-23 12:30:00,
2013-04-23 07:35:00,32.9,16.8,28.97,South,176,2.7,7.6,51,0.00,,OVC012,0.00,VWS V14.00,2013-04-23 12:35:00,
2013-04-23 07:40:00,33.1,16.9,28.97,NW,311,4.0,5.8,51,0.00,,OVC012,0.00,VWS V14.00,2013-04-23 12:40:00,
2013-04-23 07:45:00,33.1,16.5,28.97,SW,217,9.6,10.5,50,0.00,,OVC012,0.00,VWS V14.00,2013-04-23 12:45:00,
2013-04-23 07:50:00,33.1,16.9,28.97,SSW,209,4.0,4.9,51,0.00,,OVC012,0.00,VWS V14.00,2013-04-23 12:50:00,
2013-04-23 07:55:00,32.7,16.1,29.00,WNW,285,6.3,9.6,50,0.00,,OVC012,0.00,VWS V14.00,2013-04-23 12:55:00,
2013-04-23 08:00:00,33.1,16.5,29.00,West,280,3.6,10.1,50,0.00,,OVC013,0.00,VWS V14.00,2013-04-23 13:00:00,
2013-04-23 08:05:00,32.9,15.4,29.00,NNW,337,8.3,13.2,48,0.00,,OVC013,0.00,VWS V14.00,2013-04-23 13:05:00,
2013-04-23 08:10:00,33.3,16.2,29.00,West,276,11.0,11.0,49,0.00,,OVC013,0.00,VWS V14.00,2013-04-23 13:10:00,
2013-04-23 08:15:00,32.9,15.4,29.00,West,259,8.7,11.0,48,0.00,,OVC013,0.00,VWS V14.00,2013-04-23 13:15:00,
2013-04-23 08:20:00,33.1,15.5,29.00,West,280,8.1,8.1,48,0.00,,OVC013,0.00,VWS V14.00,2013-04-23 13:20:00,
2013-04-23 08:25:00,33.1,15.5,29.00,West,278,2.7,12.3,48,0.00,,OVC013,0.00,VWS V14.00,2013-04-23 13:25:00,
2013-04-23 08:30:00,33.1,15.1,29.00,West,278,6.3,11.0,47,0.00,,OVC013,0.00,VWS V14.00,2013-04-23 13:30:00,
2013-04-23 08:35:00,33.1,15.1,29.00,NNW,339,7.6,12.8,47,0.00,,OVC013,0.00,VWS V14.00,2013-04-23 13:35:00,
2013-04-23 08:40:00,33.3,14.7,29.00,NW,305,5.4,5.4,46,0.00,,OVC013,0.00,VWS V14.00,2013-04-23 13:40:00,
2013-04-23 08:45:00,33.4,14.9,29.00,SSW,208,3.6,11.0,46,0.00,,OVC013,0.00,VWS V14.00,2013-04-23 13:45:00,
2013-04-23 08:50:00,33.6,15.1,29.00,West,271,5.8,5.8,46,0.00,,OVC013,0.00,VWS V14.00,2013-04-23 13:50:00,
2013-04-23 08:55:00,33.3,14.2,29.00,WNW,294,8.3,10.1,45,0.00,,OVC013,0.00,VWS V14.00,2013-04-23 13:55:00,
2013-04-23 09:00:00,33.6,15.1,29.00,NW,304,4.9,5.4,46,0.00,,OVC013,0.00,VWS V14.00,2013-04-23 14:00:00,
2013-04-23 09:05:00,33.3,14.7,29.00,West,268,8.1,10.1,46,0.00,,OVC013,0.00,VWS V14.00,2013-04-23 14:05:00,
2013-04-23 09:10:00,33.3,15.2,29.00,West,267,10.1,10.1,47,0.00,,OVC013,0.00,VWS V14.00,2013-04-23 14:10:00,
2013-04-23 09:15:00,32.9,14.4,29.00,NW,324,3.6,14.1,46,0.00,,OVC013,0.00,VWS V14.00,2013-04-23 14:15:00,
2013-04-23 09:20:00,33.1,14.1,29.00,NNW,328,2.7,8.1,45,0.00,,OVC013,0.00,VWS V14.00,2013-04-23 14:20:00,
2013-04-23 09:25:00,33.6,14.1,29.00,SW,215,3.6,8.7,44,0.00,,OVC013,0.00,VWS V14.00,2013-04-23 14:25:00,
2013-04-23 09:30:00,33.6,13.5,29.00,WSW,251,5.8,8.7,43,0.00,,OVC013,0.00,VWS V14.00,2013-04-23 14:30:00,
2013-04-23 09:36:00,34.0,13.3,29.00,NW,308,9.6,11.4,42,0.00,,OVC013,0.00,VWS V14.00,2013-04-23 14:36:00,
2013-04-23 09:41:00,34.5,13.8,29.00,WNW,293,7.6,7.6,42,0.00,,OVC013,0.00,VWS V14.00,2013-04-23 14:41:00,
2013-04-23 09:46:00,34.5,13.8,29.00,WNW,290,8.3,11.0,42,0.00,,OVC013,0.00,VWS V14.00,2013-04-23 14:46:00,
2013-04-23 09:51:00,34.2,13.5,29.00,WNW,295,3.6,10.1,42,0.00,,OVC015,0.00,VWS V14.00,2013-04-23 14:51:00,
2013-04-23 09:56:00,34.0,13.3,29.00,WNW,296,8.3,11.0,42,0.00,,OVC015,0.00,VWS V14.00,2013-04-23 14:56:00,
2013-04-23 10:01:00,34.5,13.8,29.00,WSW,246,8.3,8.3,42,0.00,,OVC014,0.00,VWS V14.00,2013-04-23 15:01:00,
2013-04-23 10:06:00,35.4,14.1,29.00,SW,227,7.6,11.0,41,0.00,,OVC014,0.00,VWS V14.00,2013-04-23 15:06:00,
2013-04-23 10:11:00,34.9,13.6,29.00,WNW,284,5.8,7.6,41,0.00,,OVC014,0.00,VWS V14.00,2013-04-23 15:11:00,
2013-04-23 10:16:00,34.3,13.1,29.00,West,278,8.1,10.5,41,0.00,,OVC014,0.00,VWS V14.00,2013-04-23 15:16:00,
2013-04-23 10:21:00,34.2,13.5,29.00,WNW,297,5.4,10.1,42,0.00,,OVC014,0.00,VWS V14.00,2013-04-23 15:21:00,
2013-04-23 10:26:00,34.7,13.4,29.00,WSW,239,8.3,12.3,41,0.00,,OVC014,0.00,VWS V14.00,2013-04-23 15:26:00,
2013-04-23 10:31:00,35.4,14.1,29.00,West,259,5.4,9.6,41,0.00,,OVC014,0.00,VWS V14.00,2013-04-23 15:31:00,
2013-04-23 10:36:00,35.8,13.3,29.00,WSW,252,4.0,11.9,39,0.00,,OVC014,0.00,VWS V14.00,2013-04-23 15:36:00,
2013-04-23 10:41:00,35.1,13.2,29.00,West,273,11.0,11.0,40,0.00,,OVC014,0.00,VWS V14.00,2013-04-23 15:41:00,
2013-04-23 10:46:00,34.9,13.0,29.00,West,267,8.7,12.8,40,0.00,,OVC015,0.00,VWS V14.00,2013-04-23 15:46:00,
2013-04-23 10:51:00,35.6,13.1,29.00,WNW,288,5.4,8.3,39,0.00,,OVC015,0.00,VWS V14.00,2013-04-23 15:51:00,
2013-04-23 10:55:00,36.3,13.8,29.00,WSW,239,3.1,8.7,39,0.00,,OVC015,0.00,VWS V14.00,2013-04-23 15:55:00,
2013-04-23 11:00:00,35.8,13.3,29.00,NNW,327,8.1,8.1,39,0.00,,OVC015,0.00,VWS V14.00,2013-04-23 16:00:00,
2013-04-23 11:05:00,36.1,14.2,29.00,NW,319,5.4,11.0,40,0.00,,OVC015,0.00,VWS V14.00,2013-04-23 16:05:00,
2013-04-23 11:10:00,36.1,13.6,29.00,West,263,8.1,10.1,39,0.00,,OVC015,0.00,VWS V14.00,2013-04-23 16:10:00,
2013-04-23 11:15:00,36.5,13.9,29.00,WNW,296,6.3,10.1,39,0.00,,OVC015,0.00,VWS V14.00,2013-04-23 16:15:00,
2013-04-23 11:20:00,36.0,13.4,29.00,West,280,7.6,8.1,39,0.00,,OVC015,0.00,VWS V14.00,2013-04-23 16:20:00,
2013-04-23 11:25:00,36.1,13.6,29.00,West,271,7.6,12.8,39,0.00,,OVC015,0.00,VWS V14.00,2013-04-23 16:25:00,
2013-04-23 11:30:00,37.0,14.4,29.00,WSW,237,3.1,5.8,39,0.00,,OVC015,0.00,VWS V14.00,2013-04-23 16:30:00,
2013-04-23 11:35:00,37.6,12.4,29.00,WSW,238,7.6,12.3,35,0.00,,OVC015,0.00,VWS V14.00,2013-04-23 16:35:00,
2013-04-23 11:40:00,37.8,11.9,29.00,WNW,301,10.1,10.5,34,0.00,,OVC015,0.00,VWS V14.00,2013-04-23 16:40:00,
2013-04-23 11:45:00,37.2,11.4,29.00,West,271,8.1,12.8,34,0.00,,OVC015,0.00,VWS V14.00,2013-04-23 16:45:00,
2013-04-23 11:50:00,37.2,12.1,29.00,WSW,255,5.4,11.0,35,0.00,,OVC015,0.00,VWS V14.00,2013-04-23 16:50:00,
2013-04-23 11:55:00,38.7,12.1,29.00,West,272,9.2,11.0,33,0.00,,OVC015,0.00,VWS V14.00,2013-04-23 16:55:00,
2013-04-23 12:00:00,38.7,12.1,29.00,West,269,5.8,8.7,33,0.00,,OVC080,0.00,VWS V14.00,2013-04-23 17:00:00,
2013-04-23 12:05:00,38.8,12.2,29.00,NW,306,5.4,14.5,33,0.00,,OVC080,0.00,VWS V14.00,2013-04-23 17:05:00,
2013-04-23 12:10:00,39.7,12.3,29.00,NW,325,3.1,6.3,32,0.00,,OVC080,0.00,VWS V14.00,2013-04-23 17:10:00,
2013-04-23 12:15:00,39.4,11.3,29.00,West,280,7.6,10.1,31,0.00,,OVC080,0.00,VWS V14.00,2013-04-23 17:15:00,
2013-04-23 12:20:00,38.5,11.2,29.00,NW,315,8.7,10.5,32,0.00,,OVC080,0.00,VWS V14.00,2013-04-23 17:20:00,
2013-04-23 12:25:00,38.1,12.2,29.00,WSW,239,5.8,11.0,34,0.00,,SCT075,0.00,VWS V14.00,2013-04-23 17:25:00,
2013-04-23 12:30:00,37.8,11.9,29.00,South,179,6.7,8.3,34,0.00,,SCT075,0.00,VWS V14.00,2013-04-23 17:30:00,
2013-04-23 12:35:00,37.8,13.2,29.00,WNW,295,7.6,12.3,36,0.00,,SCT075,0.00,VWS V14.00,2013-04-23 17:35:00,
2013-04-23 12:40:00,38.8,12.9,28.97,WSW,251,5.8,8.1,34,0.00,,SCT075,0.00,VWS V14.00,2013-04-23 17:40:00,
2013-04-23 12:45:00,39.4,12.0,28.97,NW,306,6.3,11.0,32,0.00,,SCT075,0.00,VWS V14.00,2013-04-23 17:45:00,
2013-04-23 12:50:00,38.7,12.1,28.97,NW,310,3.1,8.1,33,0.00,,SCT075,0.00,VWS V14.00,2013-04-23 17:50:00,
2013-04-23 12:55:00,38.3,11.7,28.97,WSW,249,7.6,8.3,33,0.00,,SCT075,0.00,VWS V14.00,2013-04-23 17:55:00,
2013-04-23 13:00:00,37.8,11.9,28.97,West,268,4.9,10.5,34,0.00,,OVC070,0.00,VWS V14.00,2013-04-23 18:00:00,
2013-04-23 13:05:00,38.7,12.7,28.97,West,280,4.0,10.5,34,0.00,,OVC070,0.00,VWS V14.00,2013-04-23 18:05:00,
2013-04-23 13:10:00,39.4,12.7,28.97,ENE,70,2.7,6.3,33,0.00,,OVC070,0.00,VWS V14.00,2013-04-23 18:10:00,
2013-04-23 13:15:00,39.6,12.1,28.97,WNW,296,4.0,11.0,32,0.00,,OVC070,0.00,VWS V14.00,2013-04-23 18:15:00,
2013-04-23 13:20:00,38.8,11.5,28.97,WNW,295,6.3,10.5,32,0.00,,OVC070,0.00,VWS V14.00,2013-04-23 18:20:00,
2013-04-23 13:25:00,38.3,11.0,28.97,NW,310,8.7,12.3,32,0.00,,OVC070,0.00,VWS V14.00,2013-04-23 18:25:00,
2013-04-23 13:30:00,38.5,11.9,28.97,WSW,247,4.9,8.7,33,0.00,,OVC070,0.00,VWS V14.00,2013-04-23 18:30:00,
2013-04-23 13:35:00,39.4,12.0,28.97,WNW,303,7.6,10.5,32,0.00,,OVC070,0.00,VWS V14.00,2013-04-23 18:35:00,
2013-04-23 13:40:00,39.6,12.1,28.97,WNW,289,4.0,9.2,32,0.00,,OVC070,0.00,VWS V14.00,2013-04-23 18:40:00,
2013-04-23 13:45:00,39.0,11.7,28.97,West,276,7.6,13.2,32,0.00,,OVC070,0.00,VWS V14.00,2013-04-23 18:45:00,
2013-04-23 13:50:00,39.2,11.1,28.97,WSW,249,4.9,15.0,31,0.00,,OVC070,0.00,VWS V14.00,2013-04-23 18:50:00,
2013-04-23 13:55:00,39.2,11.1,28.97,West,275,8.1,15.0,31,0.00,,OVC070,0.00,VWS V14.00,2013-04-23 18:55:00,
2013-04-23 14:00:00,38.7,10.6,28.97,NW,314,7.2,8.7,31,0.00,,OVC065,0.00,VWS V14.00,2013-04-23 19:00:00,
2013-04-23 14:05:00,39.9,11.8,28.97,WNW,297,4.9,11.0,31,0.00,,OVC065,0.00,VWS V14.00,2013-04-23 19:05:00,
2013-04-23 14:10:00,40.1,11.2,28.97,NW,317,8.1,8.1,30,0.00,,OVC065,0.00,VWS V14.00,2013-04-23 19:10:00,
2013-04-23 14:15:00,41.0,12.0,28.97,WNW,282,4.9,10.5,30,0.00,,OVC065,0.00,VWS V14.00,2013-04-23 19:15:00,
2013-04-23 14:20:00,40.8,11.8,28.97,WNW,285,4.0,5.4,30,0.00,,OVC065,0.00,VWS V14.00,2013-04-23 19:20:00,
2013-04-23 14:25:00,41.2,11.4,28.97,SW,226,6.3,10.5,29,0.00,,OVC065,0.00,VWS V14.00,2013-04-23 19:25:00,
2013-04-23 14:30:00,43.9,13.7,28.97,NW,313,2.2,4.0,29,0.00,,OVC065,0.00,VWS V14.00,2013-04-23 19:30:00,
2013-04-23 14:35:00,42.3,12.3,28.97,West,269,3.1,15.9,29,0.00,,OVC065,0.00,VWS V14.00,2013-04-23 19:35:00,
2013-04-23 14:40:00,42.6,12.6,28.97,West,275,5.8,11.0,29,0.00,,OVC065,0.00,VWS V14.00,2013-04-23 19:40:00,
2013-04-23 14:45:00,42.1,12.1,28.97,NW,311,4.9,11.0,29,0.00,,OVC065,0.00,VWS V14.00,2013-04-23 19:45:00,
2013-04-23 14:50:00,43.7,12.8,28.97,WNW,287,3.6,5.4,28,0.00,,OVC065,0.00,VWS V14.00,2013-04-23 19:50:00,
2013-04-23 14:55:00,43.0,12.1,28.97,South,174,8.3,13.6,28,0.00,,OVC065,0.00,VWS V14.00,2013-04-23 19:55:00,
2013-04-23 15:00:00,43.5,12.6,28.97,North,357,0.0,5.4,28,0.00,,OVC250,0.00,VWS V14.00,2013-04-23 20:00:00,
2013-04-23 15:05:00,42.6,12.6,28.97,WSW,253,5.8,11.0,29,0.00,,OVC250,0.00,VWS V14.00,2013-04-23 20:05:00,
2013-04-23 15:10:00,43.5,12.6,28.94,WSW,257,6.3,6.3,28,0.00,,OVC250,0.00,VWS V14.00,2013-04-23 20:10:00,
2013-04-23 15:15:00,43.0,12.1,28.94,NW,323,5.4,11.0,28,0.00,,OVC250,0.00,VWS V14.00,2013-04-23 20:15:00,
2013-04-23 15:20:00,43.0,12.1,28.94,WSW,249,6.7,8.3,28,0.00,,OVC250,0.00,VWS V14.00,2013-04-23 20:20:00,
2013-04-23 15:25:00,43.2,12.3,28.94,WNW,284,8.1,11.0,28,0.00,,OVC250,0.00,VWS V14.00,2013-04-23 20:25:00,
2013-04-23 15:30:00,42.3,11.5,28.94,WNW,285,5.4,7.6,28,0.00,,OVC250,0.00,VWS V14.00,2013-04-23 20:30:00,
2013-04-23 15:35:00,43.0,12.1,28.94,West,281,5.4,11.0,28,0.00,,OVC250,0.00,VWS V14.00,2013-04-23 20:35:00,
2013-04-23 15:40:00,42.6,11.8,28.94,WSW,242,10.1,10.1,28,0.00,,OVC250,0.00,VWS V14.00,2013-04-23 20:40:00,
2013-04-23 15:45:00,41.9,11.2,28.94,WSW,255,5.4,10.1,28,0.00,,OVC250,0.00,VWS V14.00,2013-04-23 20:45:00,
2013-04-23 15:50:00,42.8,12.0,28.94,WNW,302,5.8,8.1,28,0.00,,OVC250,0.00,VWS V14.00,2013-04-23 20:50:00,
2013-04-23 15:55:00,41.9,11.2,28.94,WSW,242,5.8,11.4,28,0.00,,OVC250,0.00,VWS V14.00,2013-04-23 20:55:00,
2013-04-23 16:00:00,43.0,12.1,28.94,WSW,246,5.4,8.3,28,0.00,,OVC260,0.00,VWS V14.00,2013-04-23 21:00:00,
2013-04-23 16:05:00,42.6,11.8,28.94,West,265,5.4,10.1,28,0.00,,OVC260,0.00,VWS V14.00,2013-04-23 21:05:00,
2013-04-23 16:10:00,42.4,11.7,28.94,WNW,300,3.1,8.7,28,0.00,,OVC260,0.00,VWS V14.00,2013-04-23 21:10:00,
2013-04-23 16:15:00,41.5,10.9,28.94,WSW,255,5.8,11.0,28,0.00,,OVC260,0.00,VWS V14.00,2013-04-23 21:15:00,
2013-04-23 16:20:00,42.3,11.5,28.94,WNW,298,7.6,7.6,28,0.00,,OVC260,0.00,VWS V14.00,2013-04-23 21:20:00,
2013-04-23 16:25:00,43.0,12.1,28.94,West,280,11.0,11.0,28,0.00,,OVC260,0.00,VWS V14.00,2013-04-23 21:25:00,
2013-04-23 16:30:00,43.2,9.7,28.94,West,268,6.7,10.1,25,0.00,,OVC260,0.00,VWS V14.00,2013-04-23 21:30:00,
2013-04-23 16:35:00,43.2,12.3,28.94,NW,308,4.0,10.1,28,0.00,,OVC260,0.00,VWS V14.00,2013-04-23 21:35:00,
2013-04-23 16:40:00,44.2,10.7,28.94,WNW,285,3.6,4.9,25,0.00,,OVC260,0.00,VWS V14.00,2013-04-23 21:40:00,
2013-04-23 16:45:00,43.3,9.9,28.94,WNW,282,10.1,10.1,25,0.00,,OVC260,0.00,VWS V14.00,2013-04-23 21:45:00,
2013-04-23 16:50:00,44.1,10.5,28.94,WSW,250,4.0,7.6,25,0.00,,OVC260,0.00,VWS V14.00,2013-04-23 21:50:00,
2013-04-23 16:55:00,45.3,11.6,28.94,NW,324,7.6,8.7,25,0.00,,OVC260,0.00,VWS V14.00,2013-04-23 21:55:00,
2013-04-23 17:00:00,44.8,11.1,28.94,WNW,299,12.8,12.8,25,0.00,,OVC110,0.00,VWS V14.00,2013-04-23 22:00:00,
2013-04-23 17:05:00,44.2,10.7,28.94,NW,305,2.7,12.8,25,0.00,,OVC110,0.00,VWS V14.00,2013-04-23 22:05:00,
2013-04-23 17:10:00,43.2,9.7,28.94,West,273,8.3,10.5,25,0.00,,OVC110,0.00,VWS V14.00,2013-04-23 22:10:00,
2013-04-23 17:15:00,42.4,10.0,28.94,NW,307,5.4,12.3,26,0.00,,OVC110,0.00,VWS V14.00,2013-04-23 22:15:00,
2013-04-23 17:20:00,43.7,8.3,28.94,West,275,5.8,8.7,23,0.00,,OVC110,0.00,VWS V14.00,2013-04-23 22:20:00,
2013-04-23 17:25:00,45.9,9.2,28.94,West,267,7.6,8.7,22,0.00,,OVC110,0.00,VWS V14.00,2013-04-23 22:25:00,
2013-04-23 17:30:00,43.7,8.3,28.94,NW,320,8.1,11.9,23,0.00,,OVC110,0.00,VWS V14.00,2013-04-23 22:30:00,
2013-04-23 17:35:00,43.5,8.2,28.94,West,268,10.1,11.9,23,0.00,,OVC110,0.00,VWS V14.00,2013-04-23 22:35:00,
2013-04-23 17:40:00,43.2,7.9,28.94,WNW,290,4.9,4.9,23,0.00,,OVC110,0.00,VWS V14.00,2013-04-23 22:40:00,
2013-04-23 17:45:00,42.8,9.4,28.94,SW,220,4.9,10.5,25,0.00,,OVC110,0.00,VWS V14.00,2013-04-23 22:45:00,
2013-04-23 17:50:00,43.3,9.9,28.94,WNW,302,8.3,8.3,25,0.00,,OVC110,0.00,VWS V14.00,2013-04-23 22:50:00,
2013-04-23 17:55:00,42.8,7.6,28.94,NNW,344,5.8,8.7,23,0.00,,OVC110,0.00,VWS V14.00,2013-04-23 22:55:00,
2013-04-23 18:00:00,42.1,7.0,28.94,WNW,286,5.4,7.2,23,0.00,,OVC250,0.00,VWS V14.00,2013-04-23 23:00:00,
2013-04-23 18:05:00,41.7,9.4,28.94,WSW,243,4.0,11.0,26,0.00,,OVC250,0.00,VWS V14.00,2013-04-23 23:05:00,
2013-04-23 18:10:00,42.1,9.7,28.94,WNW,287,6.3,7.6,26,0.00,,OVC250,0.00,VWS V14.00,2013-04-23 23:10:00,
2013-04-23 18:15:00,41.5,9.2,28.94,SSW,210,0.0,12.8,26,0.00,,OVC250,0.00,VWS V14.00,2013-04-23 23:15:00,
2013-04-23 18:20:00,41.4,9.1,28.94,WNW,296,6.3,10.1,26,0.00,,OVC250,0.00,VWS V14.00,2013-04-23 23:20:00,
2013-04-23 18:25:00,41.5,9.2,28.94,West,276,4.9,10.1,26,0.00,,OVC250,0.00,VWS V14.00,2013-04-23 23:25:00,
2013-04-23 18:30:00,41.0,8.8,28.94,SW,225,7.6,7.6,26,0.00,,OVC250,0.00,VWS V14.00,2013-04-23 23:30:00,
2013-04-23 18:35:00,40.6,8.4,28.94,West,263,7.6,8.7,26,0.00,,OVC250,0.00,VWS V14.00,2013-04-23 23:35:00,
2013-04-23 18:40:00,41.2,8.9,28.94,WNW,303,8.3,8.3,26,0.00,,OVC250,0.00,VWS V14.00,2013-04-23 23:40:00,
2013-04-23 18:45:00,42.1,9.7,28.94,West,266,6.3,8.3,26,0.00,,OVC250,0.00,VWS V14.00,2013-04-23 23:45:00,
2013-04-23 18:50:00,40.8,8.6,28.94,SSW,198,10.1,10.1,26,0.00,,OVC250,0.00,VWS V14.00,2013-04-23 23:50:00,
2013-04-23 18:55:00,40.5,8.3,28.94,SSW,209,8.3,13.2,26,0.00,,OVC250,0.00,VWS V14.00,2013-04-23 23:55:00,
2013-04-23 19:00:00,40.5,8.3,28.94,SW,233,5.8,5.8,26,0.00,,OVC250,0.00,VWS V14.00,2013-04-24 00:00:00,
2013-04-23 19:05:00,39.9,9.5,28.94,SSW,202,3.1,11.9,28,0.00,,OVC250,0.00,VWS V14.00,2013-04-24 00:05:00,
2013-04-23 19:10:00,39.6,9.2,28.94,West,268,3.1,8.3,28,0.00,,OVC250,0.00,VWS V14.00,2013-04-24 00:10:00,
2013-04-23 19:15:00,39.4,9.0,28.94,WNW,285,3.1,8.3,28,0.00,,OVC250,0.00,VWS V14.00,2013-04-24 00:15:00,
2013-04-23 19:20:00,39.4,9.0,28.94,SSW,197,5.4,5.4,28,0.00,,OVC250,0.00,VWS V14.00,2013-04-24 00:20:00,
2013-04-23 19:25:00,38.8,9.3,28.94,NW,314,6.3,11.0,29,0.00,,OVC250,0.00,VWS V14.00,2013-04-24 00:25:00,
2013-04-23 19:30:00,38.7,9.2,28.94,SW,231,11.0,11.0,29,0.00,,OVC250,0.00,VWS V14.00,2013-04-24 00:30:00,
2013-04-23 19:35:00,38.5,9.0,28.94,WSW,258,4.9,11.0,29,0.00,,OVC250,0.00,VWS V14.00,2013-04-24 00:35:00,
2013-04-23 19:40:00,38.3,8.8,28.94,WSW,258,3.6,3.6,29,0.00,,OVC250,0.00,VWS V14.00,2013-04-24 00:40:00,
2013-04-23 19:45:00,38.1,8.7,28.94,WNW,288,3.1,11.0,29,0.00,,OVC250,0.00,VWS V14.00,2013-04-24 00:45:00,
2013-04-23 19:50:00,37.8,8.4,28.94,SW,235,3.1,7.6,29,0.00,,OVC250,0.00,VWS V14.00,2013-04-24 00:50:00,
2013-04-23 19:55:00,37.4,8.1,28.97,West,261,3.6,10.5,29,0.00,,OVC250,0.00,VWS V14.00,2013-04-24 00:55:00,
2013-04-23 20:00:00,37.4,8.1,28.97,WSW,257,2.7,5.8,29,0.00,,OVC200,0.00,VWS V14.00,2013-04-24 01:00:00,
2013-04-23 20:05:00,37.2,8.6,28.97,West,267,5.8,8.7,30,0.00,,OVC200,0.00,VWS V14.00,2013-04-24 01:05:00,
2013-04-23 20:10:00,37.0,8.5,28.97,SW,236,8.1,11.4,30,0.00,,OVC200,0.00,VWS V14.00,2013-04-24 01:10:00,
2013-04-23 20:15:00,37.0,8.5,28.97,West,261,3.1,11.4,30,0.00,,OVC200,0.00,VWS V14.00,2013-04-24 01:15:00,
2013-04-23 20:20:00,36.5,8.0,28.97,WNW,283,5.4,5.4,30,0.00,,OVC200,0.00,VWS V14.00,2013-04-24 01:20:00,
2013-04-23 20:25:00,36.7,8.2,28.97,SW,217,3.1,11.0,30,0.00,,OVC200,0.00,VWS V14.00,2013-04-24 01:25:00,
2013-04-23 20:30:00,36.7,8.2,28.97,WSW,251,2.7,4.9,30,0.00,,OVC200,0.00,VWS V14.00,2013-04-24 01:30:00,
2013-04-23 20:35:00,36.3,7.9,28.97,SW,230,0.0,9.6,30,0.00,,OVC200,0.00,VWS V14.00,2013-04-24 01:35:00,
2013-04-23 20:40:00,36.3,7.9,28.97,West,275,7.6,7.6,30,0.00,,OVC200,0.00,VWS V14.00,2013-04-24 01:40:00,
2013-04-23 20:45:00,36.3,7.9,28.97,SW,222,5.8,10.5,30,0.00,,OVC200,0.00,VWS V14.00,2013-04-24 01:45:00,
2013-04-23 20:50:00,36.3,7.9,28.97,West,265,5.4,6.3,30,0.00,,OVC200,0.00,VWS V14.00,2013-04-24 01:50:00,
2013-04-23 20:55:00,36.3,7.9,28.97,SW,232,8.1,10.1,30,0.00,,OVC200,0.00,VWS V14.00,2013-04-24 01:55:00,
2013-04-23 21:00:00,36.1,7.7,28.97,West,276,8.3,8.3,30,0.00,,OVC140,0.00,VWS V14.00,2013-04-24 02:00:00,
2013-04-23 21:05:00,35.8,7.4,28.97,West,263,4.0,10.5,30,0.00,,OVC140,0.00,VWS V14.00,2013-04-24 02:05:00,
2013-04-23 21:10:00,36.0,7.6,28.97,WNW,282,5.8,11.0,30,0.00,,OVC140,0.00,VWS V14.00,2013-04-24 02:10:00,
2013-04-23 21:16:00,35.8,7.4,28.97,NW,317,3.1,11.0,30,0.00,,OVC140,0.00,VWS V14.00,2013-04-24 02:16:00,
2013-04-23 21:21:00,35.8,7.4,28.97,WNW,287,3.6,8.3,30,0.00,,OVC140,0.00,VWS V14.00,2013-04-24 02:21:00,
2013-04-23 21:26:00,35.6,7.2,29.00,West,273,7.6,8.3,30,0.00,,OVC140,0.00,VWS V14.00,2013-04-24 02:26:00,
2013-04-23 21:31:00,35.4,7.1,29.00,West,277,4.9,5.8,30,0.00,,OVC140,0.00,VWS V14.00,2013-04-24 02:31:00,
2013-04-23 21:36:00,35.2,7.7,29.00,West,260,4.9,7.6,31,0.00,,OVC140,0.00,VWS V14.00,2013-04-24 02:36:00,
2013-04-23 21:41:00,35.1,7.5,29.00,West,281,2.7,11.0,31,0.00,,OVC140,0.00,VWS V14.00,2013-04-24 02:41:00,
2013-04-23 21:46:00,34.9,6.6,29.00,South,178,3.1,11.0,30,0.00,,OVC140,0.00,VWS V14.00,2013-04-24 02:46:00,
2013-04-23 21:51:00,34.9,6.6,29.00,WNW,283,2.2,5.8,30,0.00,,OVC140,0.00,VWS V14.00,2013-04-24 02:51:00,
2013-04-23 21:56:00,34.9,6.6,29.00,West,279,4.9,8.1,30,0.00,,OVC140,0.00,VWS V14.00,2013-04-24 02:56:00,
2013-04-23 22:01:00,34.9,6.6,29.00,West,262,4.5,5.8,30,0.00,,OVC200,0.00,VWS V14.00,2013-04-24 03:01:00,
2013-04-23 22:07:00,34.3,6.1,29.00,WSW,237,0.0,7.6,30,0.00,,OVC200,0.00,VWS V14.00,2013-04-24 03:07:00,
2013-04-23 22:12:00,34.3,6.9,29.00,SW,216,5.4,6.3,31,0.00,,OVC200,0.00,VWS V14.00,2013-04-24 03:12:00,
2013-04-23 22:17:00,34.2,6.7,29.00,SW,230,3.6,6.3,31,0.00,,OVC200,0.00,VWS V14.00,2013-04-24 03:17:00,
2013-04-23 22:22:00,34.0,7.2,29.00,West,272,5.8,6.3,32,0.00,,OVC200,0.00,VWS V14.00,2013-04-24 03:22:00,
2013-04-23 22:27:00,33.8,7.1,29.00,West,268,3.1,10.1,32,0.00,,OVC200,0.00,VWS V14.00,2013-04-24 03:27:00,
2013-04-23 22:32:00,33.4,8.1,29.00,WSW,248,3.6,6.3,34,0.00,,OVC200,0.00,VWS V14.00,2013-04-24 03:32:00,
2013-04-23 22:37:00,33.3,7.9,29.00,WNW,290,2.2,6.3,34,0.00,,OVC200,0.00,VWS V14.00,2013-04-24 03:37:00,
2013-04-23 22:42:00,32.9,8.9,29.00,WSW,241,4.0,5.4,36,0.00,,OVC200,0.00,VWS V14.00,2013-04-24 03:42:00,
2013-04-23 22:47:00,32.5,9.2,29.00,SW,221,4.5,5.4,37,0.00,,OVC200,0.00,VWS V14.00,2013-04-24 03:47:00,
2013-04-23 22:52:00,32.7,10.5,29.00,SW,229,2.7,6.3,39,0.00,,OVC200,0.00,VWS V14.00,2013-04-24 03:52:00,
2013-04-23 22:57:00,32.7,11.1,29.00,WSW,239,3.6,7.2,40,0.00,,OVC200,0.00,VWS V14.00,2013-04-24 03:57:00,
2013-04-23 23:01:00,32.7,11.1,29.00,WSW,242,2.7,4.0,40,0.00,,OVC200,0.00,VWS V14.00,2013-04-24 04:01:00,
2013-04-23 23:06:00,32.5,10.4,29.00,WNW,282,5.8,5.8,39,0.00,,OVC300,0.00,VWS V14.00,2013-04-24 04:06:00,
2013-04-23 23:11:00,32.5,10.4,29.00,West,259,3.6,6.3,39,0.00,,OVC300,0.00,VWS V14.00,2013-04-24 04:11:00,
2013-04-23 23:16:00,32.4,9.6,29.00,WNW,287,4.0,6.3,38,0.00,,OVC300,0.00,VWS V14.00,2013-04-24 04:16:00,
2013-04-23 23:21:00,32.2,8.9,29.00,WSW,237,3.6,4.0,37,0.00,,OVC300,0.00,VWS V14.00,2013-04-24 04:21:00,
2013-04-23 23:26:00,32.0,8.7,29.00,WSW,251,0.0,5.8,37,0.00,,OVC300,0.00,VWS V14.00,2013-04-24 04:26:00,
2013-04-23 23:31:00,32.2,8.2,29.00,WNW,287,4.0,4.0,36,0.00,,OVC300,0.00,VWS V14.00,2013-04-24 04:31:00,
2013-04-23 23:36:00,32.2,7.6,29.00,SW,217,3.6,8.1,35,0.00,,OVC300,0.00,VWS V14.00,2013-04-24 04:36:00,
2013-04-23 23:41:00,32.0,7.5,29.00,SW,230,3.1,3.6,35,0.00,,OVC300,0.00,VWS V14.00,2013-04-24 04:41:00,
2013-04-23 23:46:00,32.2,7.0,29.00,SW,221,0.0,5.8,34,0.00,,OVC300,0.00,VWS V14.00,2013-04-24 04:46:00,
2013-04-23 23:51:00,31.8,6.7,29.00,NW,320,4.0,4.0,34,0.00,,OVC300,0.00,VWS V14.00,2013-04-24 04:51:00,
2013-04-23 23:56:00,32.0,6.8,29.00,West,259,2.2,6.3,34,0.00,,OVC300,0.00,VWS V14.00,2013-04-24 04:56:00,